Terminal Aerodrome Forecast
Issued by NWS Twin Cities, MN

Home | Current Version | Previous Version | Graphics & Text | Print | Product List | Glossary On
Versions: 1 2 3 4 5 6 7 8 9 10 11 12 13 14 15 16 17 18
000
FTUS43 KMPX 190700 AAA
TAFEAU
TAF AMD
KEAU 190708Z 1907/2006 00000KT 3/4SM BR FEW200
     FM191000 17002KT 5SM BR BKN200
     FM191300 18009KT P6SM SCT200
     FM191900 21011G16KT P6SM FEW200
     FM192300 24006KT P6SM SKC=

USA.gov is the U.S. government's official web portal to all federal, state and local government web resources and services.